createdAt,value
2019-05-29T00:03:28.979Z,84.66
2019-05-29T00:08:32.421Z,86.13
2019-05-29T00:13:35.842Z,89.18
2019-05-29T00:18:40.083Z,84.48
2019-05-29T00:23:43.654Z,88.28
2019-05-29T00:28:47.103Z,88.11
2019-05-29T00:33:50.604Z,88.97
2019-05-29T00:38:54.025Z,91.12
2019-05-29T00:43:57.460Z,89.70
2019-05-29T00:49:00.890Z,90.39
2019-05-29T00:54:04.378Z,88.85
2019-05-29T00:59:08.926Z,90.82
2019-05-29T01:04:13.564Z,87.62
2019-05-29T01:09:18.296Z,88.16
2019-05-29T01:14:22.024Z,90.13
2019-05-29T01:19:25.650Z,89.84
2019-05-29T01:24:29.063Z,88.61
2019-05-29T01:29:32.478Z,90.19
2019-05-29T01:34:35.899Z,89.23
2019-05-29T01:39:39.602Z,91.30
2019-05-29T01:44:43.040Z,90.90
2019-05-29T01:49:46.454Z,88.00
2019-05-29T01:54:49.884Z,87.91
2019-05-29T01:59:53.347Z,88.97
2019-05-29T02:04:56.800Z,85.68
2019-05-29T02:10:00.261Z,89.19
2019-05-29T02:15:05.671Z,90.61
2019-05-29T02:20:09.722Z,89.90
2019-05-29T02:25:16.035Z,90.21
2019-05-29T02:30:21.098Z,91.43
2019-05-29T02:35:25.203Z,90.40
2019-05-29T02:40:30.115Z,92.24
2019-05-29T02:45:52.969Z,89.17
2019-05-29T02:50:38.756Z,87.46
2019-05-29T02:55:42.199Z,87.42
2019-05-29T03:00:51.908Z,89.92
2019-05-29T03:05:56.283Z,90.98
2019-05-29T03:10:59.699Z,88.37
2019-05-29T03:16:11.321Z,92.20
2019-05-29T03:21:08.610Z,88.13
2019-05-29T03:26:12.043Z,90.20
2019-05-29T03:31:15.602Z,91.62
2019-05-29T03:36:19.006Z,96.77
2019-05-29T03:41:22.412Z,90.14
2019-05-29T03:46:34.267Z,91.23
2019-05-29T03:51:32.573Z,94.62
2019-05-29T03:56:36.140Z,91.22
2019-05-29T04:01:39.590Z,91.45
2019-05-29T04:06:47.075Z,90.98
2019-05-29T04:11:48.347Z,91.21
2019-05-29T04:16:59.781Z,95.21
2019-05-29T04:22:00.976Z,94.61
2019-05-29T04:27:04.798Z,94.03
2019-05-29T04:32:08.280Z,95.73
2019-05-29T04:37:13.322Z,96.60
2019-05-29T04:42:16.756Z,97.65
2019-05-29T04:47:20.200Z,97.20
2019-05-29T04:52:23.630Z,96.34
2019-05-29T04:57:27.032Z,96.42
2019-05-29T05:02:31.093Z,96.12
2019-05-29T05:07:35.372Z,95.00
2019-05-29T05:12:40.156Z,95.24
2019-05-29T05:17:43.691Z,95.70
2019-05-29T05:22:47.102Z,92.82
2019-05-29T05:27:50.507Z,92.44
2019-05-29T05:32:53.986Z,90.62
2019-05-29T05:37:58.458Z,90.89
2019-05-29T05:43:01.965Z,91.60
2019-05-29T05:48:05.481Z,90.50
2019-05-29T05:53:08.888Z,91.09
2019-05-29T05:58:12.310Z,88.89
2019-05-29T06:03:15.737Z,88.38
2019-05-29T06:08:19.161Z,87.46
2019-05-29T06:13:22.580Z,87.12
2019-05-29T06:18:26.001Z,86.56
2019-05-29T06:23:29.450Z,84.04
2019-05-29T06:28:33.068Z,83.43
2019-05-29T06:33:37.372Z,83.44
2019-05-29T06:38:42.142Z,83.94
2019-05-29T06:43:46.629Z,82.10
2019-05-29T06:48:59.366Z,82.12
2019-05-29T06:53:55.259Z,81.42
2019-05-29T06:58:58.851Z,79.89
2019-05-29T07:04:11.733Z,84.46
2019-05-29T07:09:07.566Z,81.72
2019-05-29T07:14:11.083Z,84.32
2019-05-29T07:19:47.590Z,76.45
2019-05-29T07:24:19.746Z,80.58
2019-05-29T07:29:23.194Z,78.80
2019-05-29T07:34:26.587Z,79.69
2019-05-29T07:39:30.025Z,77.35
2019-05-29T07:44:33.445Z,72.74
2019-05-29T07:49:39.866Z,76.16
2019-05-29T07:54:43.353Z,74.51
2019-05-29T07:59:47.134Z,70.58
2019-05-29T08:04:50.563Z,69.08
2019-05-29T08:09:53.966Z,68.34
2019-05-29T08:14:57.385Z,67.02
2019-05-29T08:20:06.818Z,62.45
2019-05-29T08:25:07.018Z,55.54
2019-05-29T08:30:11.979Z,63.93
2019-05-29T08:35:15.665Z,59.36
2019-05-29T08:40:19.418Z,55.26
2019-05-29T08:45:23.100Z,55.13
2019-05-29T08:50:26.538Z,48.30
2019-05-29T08:55:29.971Z,52.86
2019-05-29T09:00:33.413Z,51.52
2019-05-29T09:05:36.822Z,53.13
2019-05-29T09:10:40.277Z,51.92
2019-05-29T09:15:43.711Z,52.39
2019-05-29T09:21:02.220Z,49.05
2019-05-29T09:25:52.638Z,49.10
2019-05-29T09:30:56.066Z,47.70
2019-05-29T09:35:59.659Z,48.65
2019-05-29T09:41:03.095Z,48.49
2019-05-29T09:46:06.507Z,46.92
2019-05-29T09:51:20.713Z,43.51
2019-05-29T09:56:15.081Z,45.17
2019-05-29T10:01:23.933Z,43.34
2019-05-29T10:06:23.705Z,44.68
2019-05-29T10:11:27.142Z,44.89
2019-05-29T10:16:30.558Z,43.06
2019-05-29T10:21:40.647Z,41.17
2019-05-29T10:26:39.225Z,40.80
2019-05-29T10:31:46.755Z,40.93
2019-05-29T10:36:50.396Z,40.98
2019-05-29T10:41:53.250Z,43.37
2019-05-29T10:46:56.803Z,41.03
2019-05-29T10:52:13.813Z,41.46
2019-05-29T10:57:05.403Z,39.70
2019-05-29T11:02:09.118Z,36.45
2019-05-29T11:07:12.605Z,35.26
2019-05-29T11:12:16.070Z,35.66
2019-05-29T11:17:19.594Z,36.87
2019-05-29T11:22:26.594Z,33.16
2019-05-29T11:27:28.353Z,34.38
2019-05-29T11:32:31.769Z,35.19
2019-05-29T11:37:35.203Z,31.57
2019-05-29T11:42:38.629Z,30.67
2019-05-29T11:47:42.066Z,30.94
2019-05-29T11:52:45.499Z,34.90
2019-05-29T11:57:48.911Z,29.78
2019-05-29T12:02:53.737Z,32.72
2019-05-29T12:07:57.587Z,34.02
2019-05-29T12:13:01.710Z,35.25
2019-05-29T12:18:22.723Z,35.34
2019-05-29T12:23:24.774Z,38.54
2019-05-29T12:28:16.930Z,37.49
2019-05-29T12:33:20.309Z,32.81
2019-05-29T12:38:23.744Z,33.53
2019-05-29T12:43:28.214Z,35.52
2019-05-29T12:48:32.028Z,30.91
2019-05-29T12:53:35.491Z,31.52
2019-05-29T12:58:38.911Z,30.17
2019-05-29T13:03:45.409Z,31.07
2019-05-29T13:08:47.484Z,29.14
2019-05-29T13:13:50.903Z,31.05
2019-05-29T13:18:54.875Z,33.16
2019-05-29T13:24:01.897Z,31.75
2019-05-29T13:29:04.239Z,32.56
2019-05-29T13:34:07.789Z,31.20
2019-05-29T13:39:11.291Z,30.67
2019-05-29T13:44:14.730Z,30.45
2019-05-29T13:49:18.174Z,31.93
2019-05-29T13:54:21.635Z,30.93
2019-05-29T13:59:25.085Z,31.15
2019-05-29T14:04:28.513Z,31.31
2019-05-29T14:09:32.046Z,29.53
2019-05-29T14:14:35.467Z,31.05
2019-05-29T14:19:38.885Z,30.33
2019-05-29T14:24:42.393Z,29.52
2019-05-29T14:29:45.828Z,29.09
2019-05-29T14:34:49.238Z,28.94
2019-05-29T14:39:52.670Z,29.67
2019-05-29T14:44:56.176Z,28.36
2019-05-29T14:49:59.610Z,27.67
2019-05-29T14:55:04.477Z,28.00
2019-05-29T15:00:20.949Z,28.56
2019-05-29T15:05:16.419Z,26.81
2019-05-29T15:10:26.744Z,29.15
2019-05-29T15:15:25.771Z,29.08
2019-05-29T15:20:29.232Z,29.34
2019-05-29T15:25:32.675Z,26.58
2019-05-29T15:30:36.128Z,27.79
2019-05-29T15:35:39.589Z,27.17
2019-05-29T15:40:43.000Z,26.09
2019-05-29T15:45:47.069Z,26.79
2019-05-29T15:50:50.500Z,25.94
2019-05-29T15:55:53.936Z,26.26
2019-05-29T16:00:57.376Z,25.69
2019-05-29T16:06:00.816Z,26.18
2019-05-29T16:11:04.221Z,27.16
2019-05-29T16:16:09.331Z,27.72
2019-05-29T16:21:12.954Z,27.49
2019-05-29T16:26:18.272Z,26.71
2019-05-29T16:31:22.914Z,26.35
2019-05-29T16:36:26.531Z,26.97
2019-05-29T16:41:29.968Z,28.20
2019-05-29T16:46:33.411Z,27.86
2019-05-29T16:51:36.871Z,29.63
2019-05-29T16:56:40.286Z,30.67
2019-05-29T17:01:43.717Z,28.74
2019-05-29T17:06:47.159Z,28.28
2019-05-29T17:11:50.597Z,30.50
2019-05-29T17:16:54.238Z,30.09
2019-05-29T17:21:57.701Z,31.32
2019-05-29T17:27:01.122Z,31.34
2019-05-29T17:32:04.607Z,33.39
2019-05-29T17:37:08.111Z,34.23
2019-05-29T17:42:11.521Z,32.14
2019-05-29T17:47:15.756Z,32.98
2019-05-29T17:52:19.747Z,33.25
2019-05-29T17:57:23.912Z,35.81
2019-05-29T18:02:27.470Z,37.71
2019-05-29T18:07:30.964Z,37.44
2019-05-29T18:12:34.383Z,38.50
2019-05-29T18:17:37.811Z,39.77
2019-05-29T18:22:41.244Z,41.41
2019-05-29T18:27:44.665Z,41.24
2019-05-29T18:32:48.115Z,43.28
2019-05-29T18:37:51.527Z,44.29
2019-05-29T18:42:54.947Z,44.03
2019-05-29T18:47:58.391Z,45.85
2019-05-29T18:53:01.888Z,46.68
2019-05-29T18:58:05.395Z,46.18
2019-05-29T19:03:08.790Z,49.07
2019-05-29T19:08:12.212Z,50.31
2019-05-29T19:13:16.927Z,51.51
2019-05-29T19:18:20.371Z,51.25
2019-05-29T19:23:24.645Z,53.02
2019-05-29T19:28:28.643Z,52.49
2019-05-29T19:33:32.125Z,53.52
2019-05-29T19:38:35.533Z,56.15
2019-05-29T19:43:38.987Z,58.07
2019-05-29T19:48:42.426Z,57.02
2019-05-29T19:53:45.870Z,57.88
2019-05-29T19:58:49.338Z,58.76
2019-05-29T20:03:52.751Z,58.23
2019-05-29T20:08:56.189Z,58.19
2019-05-29T20:13:59.625Z,57.64
2019-05-29T20:19:03.051Z,56.63
2019-05-29T20:24:06.503Z,56.87
2019-05-29T20:29:09.937Z,56.24
2019-05-29T20:34:13.361Z,56.33
2019-05-29T20:39:16.779Z,55.03
2019-05-29T20:44:20.228Z,54.48
2019-05-29T20:49:23.751Z,55.16
2019-05-29T20:54:27.176Z,55.89
2019-05-29T20:59:31.736Z,55.07
2019-05-29T21:04:36.352Z,55.74
2019-05-29T21:09:41.071Z,56.23
2019-05-29T21:14:44.770Z,56.13
2019-05-29T21:19:48.183Z,57.05
2019-05-29T21:25:01.071Z,57.01
2019-05-29T21:29:56.806Z,56.85
2019-05-29T21:35:00.238Z,57.40
2019-05-29T21:40:05.706Z,57.49
2019-05-29T21:45:10.864Z,58.22
2019-05-29T21:50:15.657Z,58.08
2019-05-29T21:55:19.209Z,58.10
2019-05-29T22:00:44.551Z,58.33
2019-05-29T22:05:48.838Z,58.20
2019-05-29T22:10:53.443Z,57.50
2019-05-29T22:15:57.035Z,57.86
2019-05-29T22:21:01.663Z,57.88
2019-05-29T22:26:05.194Z,57.71
2019-05-29T22:31:08.596Z,58.31
2019-05-29T22:36:12.021Z,58.04
2019-05-29T22:41:15.439Z,58.62
2019-05-29T22:46:18.870Z,58.71
2019-05-29T22:51:22.358Z,59.36
2019-05-29T22:56:25.813Z,59.71
2019-05-29T23:01:29.247Z,59.78
2019-05-29T23:06:32.693Z,59.94
2019-05-29T23:11:36.137Z,59.18
2019-05-29T23:16:39.571Z,60.61
2019-05-29T23:21:43.003Z,59.44
2019-05-29T23:26:46.435Z,59.31
2019-05-29T23:31:49.888Z,59.69
2019-05-29T23:36:53.382Z,59.90
2019-05-29T23:41:57.283Z,60.39
2019-05-29T23:47:01.792Z,60.56
2019-05-29T23:52:05.458Z,60.63
2019-05-29T23:57:08.889Z,61.60
